Time;durP1;ratioP1;P1;durP2;ratioP2;P2;SDS_P1;SDS_P2;PMS_P1;PMS_P2;Temp;Humidity;BMP_temperature;BMP_pressure;BME280_temperature;BME280_humidity;BME280_pressure;Samples;Min_cycle;Max_cycle;Signal;HPM_P1;HPM_P2
2022/04/25 00:00:35;;;;;;;12.00;5.53;;;11.00;99.90;;;;;;5073707;28;20435;-56
2022/04/25 00:03:03;;;;;;;10.93;5.53;;;11.00;99.90;;;;;;5073261;28;20107;-56
2022/04/25 00:05:28;;;;;;;11.80;5.15;;;10.90;99.90;;;;;;5073524;28;20029;-56
2022/04/25 00:07:54;;;;;;;13.70;5.70;;;10.90;99.90;;;;;;5074532;28;20070;-56
2022/04/25 00:10:20;;;;;;;13.18;5.35;;;10.90;99.90;;;;;;5071539;28;20058;-55
2022/04/25 00:12:49;;;;;;;11.43;5.97;;;10.80;99.90;;;;;;5072007;28;20028;-55
2022/04/25 00:15:14;;;;;;;9.90;5.90;;;10.80;99.90;;;;;;5073869;28;20055;-55
2022/04/25 00:17:40;;;;;;;8.82;5.80;;;10.80;99.90;;;;;;5073400;28;20478;-55
2022/04/25 00:20:08;;;;;;;9.43;5.97;;;10.80;99.90;;;;;;5074141;28;20474;-55
2022/04/25 00:22:34;;;;;;;11.45;6.10;;;10.70;99.90;;;;;;5073934;28;20036;-55
2022/04/25 00:25:02;;;;;;;10.75;6.20;;;10.70;99.90;;;;;;5072242;28;20078;-56
2022/04/25 00:27:29;;;;;;;10.15;5.70;;;10.70;99.90;;;;;;5073616;28;20025;-55
2022/04/25 00:29:55;;;;;;;15.02;6.40;;;10.70;99.90;;;;;;5073292;28;20032;-55
2022/04/25 00:32:21;;;;;;;11.18;6.60;;;10.60;99.90;;;;;;5073335;28;20461;-55
2022/04/25 00:34:47;;;;;;;11.52;6.20;;;10.60;99.90;;;;;;5073047;28;20041;-55
2022/04/25 00:37:12;;;;;;;11.15;6.20;;;10.50;99.90;;;;;;5072720;28;20040;-55
2022/04/25 00:39:38;;;;;;;11.80;6.53;;;10.50;99.90;;;;;;5073291;28;20032;-55
2022/04/25 00:42:04;;;;;;;11.40;6.25;;;10.40;99.90;;;;;;5073409;28;20025;-55
2022/04/25 00:44:36;;;;;;;10.40;6.75;;;10.40;99.90;;;;;;5073323;28;20170;-55
2022/04/25 00:47:03;;;;;;;15.02;6.63;;;10.30;99.90;;;;;;5073030;28;20021;-55
2022/04/25 00:49:29;;;;;;;14.32;6.97;;;10.30;99.90;;;;;;5073193;28;20024;-54
2022/04/25 00:51:54;;;;;;;10.68;6.65;;;10.30;99.90;;;;;;5072860;28;20100;-54
2022/04/25 00:54:21;;;;;;;12.48;7.57;;;10.30;99.90;;;;;;5073188;28;20450;-55
2022/04/25 00:56:48;;;;;;;12.75;6.95;;;10.20;99.90;;;;;;5071708;28;20028;-55
2022/04/25 00:59:21;;;;;;;16.15;7.03;;;10.20;99.90;;;;;;5071839;28;20036;-55
2022/04/25 01:01:47;;;;;;;13.98;7.53;;;10.20;99.90;;;;;;5071575;28;20044;-55
2022/04/25 01:04:13;;;;;;;11.48;7.40;;;10.20;99.90;;;;;;5072999;28;20463;-55
2022/04/25 01:06:39;;;;;;;13.93;7.80;;;10.10;99.90;;;;;;5073099;28;20025;-56
2022/04/25 01:09:09;;;;;;;18.25;7.57;;;10.10;99.90;;;;;;5072844;28;20142;-55
2022/04/25 01:11:38;;;;;;;13.30;7.53;;;10.10;99.90;;;;;;5072726;28;20031;-55
2022/04/25 01:14:11;;;;;;;14.45;7.65;;;10.10;99.90;;;;;;5073604;28;20522;-55
2022/04/25 01:16:37;;;;;;;15.32;7.93;;;10.10;99.90;;;;;;5072775;28;20024;-55
2022/04/25 01:19:03;;;;;;;14.32;7.82;;;10.00;99.90;;;;;;5072795;28;20081;-56
2022/04/25 01:21:30;;;;;;;14.73;7.90;;;10.00;99.90;;;;;;5072516;28;20089;-59
2022/04/25 01:29:24;;;;;;;13.80;8.25;;;9.90;99.90;;;;;;5073162;28;20024;-54
2022/04/25 01:31:50;;;;;;;13.00;9.05;;;9.90;99.90;;;;;;5072779;28;20024;-55
2022/04/25 01:34:15;;;;;;;16.67;8.73;;;9.90;99.90;;;;;;5070929;28;20663;-56
2022/04/25 01:36:41;;;;;;;15.85;8.82;;;9.90;99.90;;;;;;5071685;28;20040;-56
2022/04/25 01:39:07;;;;;;;12.88;8.57;;;9.90;99.90;;;;;;5072574;28;20482;-55
2022/04/25 01:41:32;;;;;;;15.40;9.10;;;9.90;99.90;;;;;;5072507;28;20135;-56
2022/04/25 01:43:58;;;;;;;19.48;9.60;;;9.80;99.90;;;;;;5072749;28;20033;-55
2022/04/25 01:46:23;;;;;;;14.30;8.80;;;9.80;99.90;;;;;;5088225;28;20021;-56
2022/04/25 01:48:49;;;;;;;20.95;9.95;;;9.80;99.90;;;;;;5072468;28;20017;-56
2022/04/25 01:51:15;;;;;;;19.23;9.52;;;9.80;99.90;;;;;;5072875;28;20114;-56
2022/04/25 01:53:40;;;;;;;13.52;9.15;;;9.70;99.90;;;;;;5072499;28;20020;-56
2022/04/25 01:56:06;;;;;;;14.50;9.45;;;9.70;99.90;;;;;;5072799;28;20050;-56
2022/04/25 01:58:31;;;;;;;15.93;9.60;;;9.70;99.90;;;;;;5070914;28;20047;-56
2022/04/25 02:00:57;;;;;;;18.10;9.77;;;9.70;99.90;;;;;;5071229;28;20033;-57
2022/04/25 02:03:23;;;;;;;18.23;9.75;;;9.70;99.90;;;;;;5072671;28;20036;-56
2022/04/25 02:05:48;;;;;;;17.48;10.95;;;9.70;99.90;;;;;;5072726;28;20028;-59
2022/04/25 02:08:14;;;;;;;15.38;11.00;;;9.70;99.90;;;;;;5072431;28;20043;-56
2022/04/25 02:10:40;;;;;;;20.63;11.30;;;9.70;99.90;;;;;;5071271;28;20646;-55
2022/04/25 02:13:06;;;;;;;21.55;11.13;;;9.70;99.90;;;;;;5072355;28;20060;-57
2022/04/25 02:15:31;;;;;;;20.70;11.02;;;9.60;99.90;;;;;;5072439;28;20032;-55
2022/04/25 02:17:57;;;;;;;22.65;11.35;;;9.60;99.90;;;;;;5072358;28;20029;-56
2022/04/25 02:20:22;;;;;;;17.70;11.20;;;9.60;99.90;;;;;;5072009;28;20158;-56
2022/04/25 02:22:48;;;;;;;21.52;12.00;;;9.60;99.90;;;;;;5071934;28;20405;-55
2022/04/25 02:25:14;;;;;;;20.50;11.77;;;9.50;99.90;;;;;;5072117;28;20060;-55
2022/04/25 02:27:39;;;;;;;22.60;12.45;;;9.50;99.90;;;;;;5075456;28;20021;-55
2022/04/25 02:30:06;;;;;;;21.05;11.77;;;9.60;99.90;;;;;;5075586;28;20029;-56
2022/04/25 02:32:31;;;;;;;22.10;11.65;;;9.50;99.90;;;;;;5075475;28;20082;-55
2022/04/25 02:34:59;;;;;;;16.98;11.52;;;9.40;99.90;;;;;;5075150;28;20056;-55
2022/04/25 02:37:25;;;;;;;22.40;11.77;;;9.40;99.90;;;;;;5075364;28;20063;-55
2022/04/25 02:39:51;;;;;;;20.80;12.98;;;9.30;99.90;;;;;;5075533;28;20031;-55
2022/04/25 02:42:16;;;;;;;19.75;12.48;;;9.20;99.90;;;;;;5075614;28;20032;-54
2022/04/25 02:44:42;;;;;;;30.98;14.13;;;9.20;99.90;;;;;;5075485;28;20092;-56
2022/04/25 02:47:08;;;;;;;23.48;13.30;;;9.30;99.90;;;;;;5074930;28;20120;-56
2022/04/25 02:49:34;;;;;;;25.75;13.25;;;9.30;99.90;;;;;;5075248;28;20070;-55
2022/04/25 02:52:00;;;;;;;27.98;13.98;;;9.20;99.90;;;;;;5074606;28;20028;-54
2022/04/25 02:54:26;;;;;;;25.83;14.35;;;9.30;99.90;;;;;;5074686;28;20101;-55
2022/04/25 02:56:51;;;;;;;20.90;13.65;;;9.20;99.90;;;;;;5075021;28;20096;-59
2022/04/25 02:59:17;;;;;;;22.17;13.98;;;9.00;99.90;;;;;;5074735;28;20389;-54
2022/04/25 03:01:43;;;;;;;23.20;14.63;;;9.00;99.90;;;;;;5075754;28;20029;-55
2022/04/25 03:04:10;;;;;;;25.58;15.07;;;9.00;99.90;;;;;;5075493;28;20035;-55
2022/04/25 03:06:35;;;;;;;28.63;15.40;;;9.00;99.90;;;;;;5074970;28;20062;-55
2022/04/25 03:09:01;;;;;;;24.45;15.05;;;9.00;99.90;;;;;;5075247;28;20037;-54
2022/04/25 03:11:27;;;;;;;23.05;15.73;;;8.90;99.90;;;;;;5075652;28;20309;-55
2022/04/25 03:13:53;;;;;;;23.20;15.32;;;8.90;99.90;;;;;;5075128;28;20055;-55
2022/04/25 03:16:19;;;;;;;27.20;15.80;;;8.90;99.90;;;;;;5074592;28;20063;-55
2022/04/25 03:18:45;;;;;;;23.23;14.57;;;8.90;99.90;;;;;;5075050;28;20017;-56
2022/04/25 03:21:11;;;;;;;24.27;15.27;;;8.90;99.90;;;;;;5074948;28;20079;-55
2022/04/25 03:23:37;;;;;;;26.77;15.98;;;8.90;99.90;;;;;;5074649;28;20020;-54
2022/04/25 03:26:04;;;;;;;28.02;15.75;;;8.90;99.90;;;;;;5075159;28;20030;-55
2022/04/25 03:28:30;;;;;;;30.38;16.50;;;8.80;99.90;;;;;;5074787;28;20066;-55
2022/04/25 03:30:55;;;;;;;28.92;16.95;;;8.90;99.90;;;;;;5074525;28;20048;-55
2022/04/25 03:33:21;;;;;;;26.67;16.75;;;8.80;99.90;;;;;;5074487;28;20051;-55
2022/04/25 03:35:46;;;;;;;27.13;16.92;;;8.80;99.90;;;;;;5074289;28;20040;-55
2022/04/25 03:38:13;;;;;;;24.52;16.88;;;8.70;99.90;;;;;;5072732;28;20025;-55
2022/04/25 03:40:39;;;;;;;24.88;16.95;;;8.80;99.90;;;;;;5073049;28;20043;-55
2022/04/25 03:43:08;;;;;;;26.92;16.55;;;8.80;99.90;;;;;;5074755;28;20029;-55
2022/04/25 03:45:34;;;;;;;28.35;17.08;;;8.70;99.90;;;;;;5073891;28;20021;-55
2022/04/25 03:48:00;;;;;;;27.52;16.80;;;8.70;99.90;;;;;;5074231;28;20029;-55
2022/04/25 03:50:25;;;;;;;25.92;16.63;;;8.70;99.90;;;;;;5074475;28;20109;-55
2022/04/25 03:52:51;;;;;;;23.17;17.00;;;8.70;99.90;;;;;;5074213;28;20025;-55
2022/04/25 03:58:04;;;;;;;28.90;17.77;;;8.60;99.90;;;;;;5074099;28;20040;-55
2022/04/25 04:00:31;;;;;;;25.98;17.42;;;8.60;99.90;;;;;;5072951;28;20520;-55
2022/04/25 04:02:58;;;;;;;28.08;17.60;;;8.60;99.90;;;;;;5074245;28;20031;-55
2022/04/25 04:05:25;;;;;;;27.67;18.77;;;8.60;99.90;;;;;;5073387;28;20047;-55
2022/04/25 04:07:50;;;;;;;32.40;18.20;;;8.60;99.90;;;;;;5073784;28;20036;-55
2022/04/25 04:10:18;;;;;;;31.58;18.92;;;8.50;99.90;;;;;;5073919;28;20033;-55
2022/04/25 04:12:47;;;;;;;25.80;18.35;;;8.50;99.90;;;;;;5073023;28;20082;-56
2022/04/25 04:15:15;;;;;;;31.60;19.23;;;8.60;99.90;;;;;;5074516;28;20492;-55
2022/04/25 04:17:41;;;;;;;31.25;18.00;;;8.60;99.90;;;;;;5073584;28;20048;-54
2022/04/25 04:20:11;;;;;;;28.55;18.25;;;8.60;99.90;;;;;;5074414;28;20029;-55
2022/04/25 04:22:37;;;;;;;27.75;18.58;;;8.50;99.90;;;;;;5073198;28;20090;-55
2022/04/25 04:25:09;;;;;;;31.90;17.88;;;8.50;99.90;;;;;;5074431;28;20024;-56
2022/04/25 04:27:35;;;;;;;26.30;17.92;;;8.50;99.90;;;;;;5074039;28;20021;-55
2022/04/25 04:30:04;;;;;;;27.75;17.98;;;8.50;99.90;;;;;;5074090;28;20016;-56
2022/04/25 04:32:30;;;;;;;25.65;18.13;;;8.50;99.90;;;;;;5075033;28;20031;-56
2022/04/25 04:34:57;;;;;;;35.05;18.02;;;8.50;99.90;;;;;;5071519;28;20032;-55
2022/04/25 04:37:26;;;;;;;29.30;18.33;;;8.50;99.90;;;;;;5071907;28;20016;-55
2022/04/25 04:40:28;;;;;;;30.80;19.58;;;8.50;99.90;;;;;;5070695;28;20043;-55
2022/04/25 04:42:41;;;;;;;31.45;18.17;;;8.40;99.90;;;;;;5071662;28;20119;-55
2022/04/25 04:45:07;;;;;;;27.13;18.15;;;8.50;99.90;;;;;;5071748;28;20052;-55
2022/04/25 04:47:38;;;;;;;30.17;17.17;;;8.50;99.90;;;;;;5071913;28;20150;-55
2022/04/25 04:50:15;;;;;;;35.33;18.60;;;8.50;99.90;;;;;;5071458;28;20024;-55
2022/04/25 04:52:47;;;;;;;27.48;18.35;;;8.50;99.90;;;;;;5071620;28;20025;-55
2022/04/25 04:55:14;;;;;;;28.43;17.83;;;8.50;99.90;;;;;;5070605;28;20082;-55
2022/04/25 04:57:40;;;;;;;33.15;18.75;;;8.50;99.90;;;;;;5070739;28;20090;-55
2022/04/25 05:00:08;;;;;;;27.25;18.58;;;8.60;99.90;;;;;;5071472;28;20035;-55
2022/04/25 05:02:34;;;;;;;32.88;18.13;;;8.70;99.90;;;;;;5071447;28;20028;-55
2022/04/25 05:05:00;;;;;;;30.38;17.48;;;8.70;99.90;;;;;;5071316;28;20470;-57
2022/04/25 05:07:26;;;;;;;27.83;18.40;;;8.80;99.90;;;;;;5071030;28;20067;-55
2022/04/25 05:09:54;;;;;;;34.83;18.33;;;8.90;99.90;;;;;;5071086;28;20244;-55
2022/04/25 05:12:20;;;;;;;25.33;17.70;;;9.00;99.90;;;;;;5071504;28;20647;-56
2022/04/25 05:14:46;;;;;;;28.45;17.67;;;9.10;99.90;;;;;;5071142;28;20100;-55
2022/04/25 05:17:12;;;;;;;28.27;16.95;;;9.10;99.90;;;;;;5069832;28;20028;-55
2022/04/25 05:19:38;;;;;;;30.92;17.08;;;9.10;99.90;;;;;;5070672;28;20023;-55
2022/04/25 05:22:04;;;;;;;51.92;21.05;;;9.20;99.90;;;;;;5070860;28;20025;-56
2022/04/25 05:24:30;;;;;;;29.08;16.30;;;9.10;99.90;;;;;;5071246;28;20492;-54
2022/04/25 05:26:55;;;;;;;24.00;16.52;;;9.10;99.90;;;;;;5071506;28;20020;-55
2022/04/25 05:29:21;;;;;;;26.33;17.67;;;9.20;99.90;;;;;;5071209;28;20025;-54
2022/04/25 05:31:49;;;;;;;28.17;16.38;;;9.20;99.90;;;;;;5071489;28;20047;-54
2022/04/25 05:34:15;;;;;;;32.85;17.00;;;9.20;99.90;;;;;;5070517;28;20557;-54
2022/04/25 05:36:41;;;;;;;31.33;16.98;;;9.20;99.90;;;;;;5070815;28;20059;-54
2022/04/25 05:39:08;;;;;;;27.67;17.33;;;9.20;99.90;;;;;;5070969;28;20012;-54
2022/04/25 05:41:35;;;;;;;32.90;16.48;;;9.30;99.90;;;;;;5070593;28;20028;-54
2022/04/25 05:44:01;;;;;;;26.75;16.65;;;9.30;99.90;;;;;;5070934;28;20040;-54
2022/04/25 05:46:27;;;;;;;26.35;15.75;;;9.40;99.90;;;;;;5070746;28;20039;-54
2022/04/25 05:54:21;;;;;;;22.13;14.18;;;9.50;99.90;;;;;;5068478;28;20035;-54
2022/04/25 05:56:47;;;;;;;22.33;14.63;;;9.60;99.90;;;;;;5072004;28;20020;-55
2022/04/25 05:59:12;;;;;;;22.63;14.85;;;9.60;99.90;;;;;;5068606;28;20029;-55
2022/04/25 06:01:38;;;;;;;31.88;17.00;;;9.70;99.90;;;;;;5062119;28;20021;-54
2022/04/25 06:04:04;;;;;;;21.38;14.75;;;9.80;99.90;;;;;;5070787;28;20031;-54
2022/04/25 06:06:29;;;;;;;26.38;14.25;;;9.90;99.90;;;;;;5062004;28;20032;-54
2022/04/25 06:08:55;;;;;;;20.75;13.88;;;10.00;99.90;;;;;;5053236;28;20147;-54
2022/04/25 06:11:21;;;;;;;25.08;13.57;;;10.00;99.90;;;;;;5051563;28;20021;-54
2022/04/25 06:13:47;;;;;;;21.52;12.23;;;10.10;99.90;;;;;;5063933;28;20521;-54
2022/04/25 06:16:13;;;;;;;35.47;13.70;;;10.20;99.90;;;;;;5053237;28;20043;-53
2022/04/25 06:18:38;;;;;;;23.95;12.60;;;10.30;99.90;;;;;;5065198;28;20031;-54
2022/04/25 06:21:04;;;;;;;28.45;13.35;;;10.50;99.90;;;;;;5066146;28;20028;-54
2022/04/25 06:23:30;;;;;;;29.08;12.82;;;10.60;99.90;;;;;;5061614;28;20047;-54
2022/04/25 06:25:56;;;;;;;25.55;13.18;;;10.90;99.90;;;;;;5055330;28;20086;-55
2022/04/25 06:28:24;;;;;;;25.25;12.98;;;11.10;99.90;;;;;;5053598;28;20021;-54
2022/04/25 06:30:51;;;;;;;24.88;13.13;;;11.10;99.90;;;;;;5057152;28;20509;-55
2022/04/25 06:33:17;;;;;;;19.77;11.90;;;11.20;99.90;;;;;;5056335;28;20055;-55
2022/04/25 06:35:46;;;;;;;17.30;11.80;;;11.10;99.90;;;;;;5061449;28;20078;-55
2022/04/25 06:38:12;;;;;;;19.13;11.77;;;11.10;99.90;;;;;;5051958;28;20098;-55
2022/04/25 06:40:37;;;;;;;18.95;12.02;;;11.10;99.90;;;;;;5056952;28;20029;-55
2022/04/25 06:43:04;;;;;;;21.75;11.45;;;11.10;99.90;;;;;;5058142;28;20513;-54
2022/04/25 06:45:30;;;;;;;22.30;11.90;;;10.90;99.90;;;;;;5056234;28;20032;-54
2022/04/25 06:47:56;;;;;;;21.83;11.55;;;10.70;99.90;;;;;;5061853;28;20025;-54
2022/04/25 06:50:22;;;;;;;22.70;12.18;;;10.80;99.90;;;;;;5065548;28;20035;-55
2022/04/25 06:52:48;;;;;;;17.27;11.10;;;11.00;99.90;;;;;;5057378;28;20472;-55
2022/04/25 06:55:14;;;;;;;18.77;11.07;;;11.10;99.90;;;;;;5060539;28;20035;-55
2022/04/25 06:57:39;;;;;;;18.38;11.27;;;11.30;99.90;;;;;;5058621;28;20043;-55
2022/04/25 07:00:11;;;;;;;16.98;10.35;;;11.30;99.90;;;;;;5059715;28;20073;-55
2022/04/25 07:02:37;;;;;;;17.15;10.68;;;11.40;99.90;;;;;;5061805;28;20024;-55
2022/04/25 07:05:06;;;;;;;17.73;11.18;;;11.50;99.90;;;;;;5056236;28;20466;-55
2022/04/25 07:07:32;;;;;;;19.52;10.88;;;11.60;99.90;;;;;;5056302;28;20107;-55
2022/04/25 07:09:58;;;;;;;23.30;10.60;;;11.90;99.90;;;;;;5055127;28;20523;-55
2022/04/25 07:12:24;;;;;;;19.15;10.35;;;12.20;99.90;;;;;;5059928;28;20230;-55
2022/04/25 07:14:49;;;;;;;17.42;9.85;;;12.90;99.90;;;;;;5056915;28;20382;-55
2022/04/25 07:17:16;;;;;;;14.80;8.80;;;13.90;99.90;;;;;;5057020;28;20749;-55
2022/04/25 07:19:41;;;;;;;17.00;8.60;;;15.30;99.90;;;;;;5060938;28;20023;-55
2022/04/25 07:30:23;;;;;;;12.95;7.88;;;17.80;96.00;;;;;;5059725;28;20027;-56
2022/04/25 07:32:49;;;;;;;14.88;8.40;;;17.70;95.30;;;;;;5061888;28;20866;-56
2022/04/25 07:35:15;;;;;;;13.10;8.65;;;17.80;95.20;;;;;;5065643;28;20083;-56
2022/04/25 07:37:42;;;;;;;14.57;8.55;;;17.40;95.00;;;;;;5056000;28;20101;-55
2022/04/25 07:40:08;;;;;;;11.38;8.77;;;17.10;95.70;;;;;;5059999;28;20086;-55
2022/04/25 07:42:35;;;;;;;13.10;8.38;;;16.70;96.40;;;;;;5063630;28;20036;-55
2022/04/25 07:45:02;;;;;;;16.77;9.05;;;16.30;97.20;;;;;;5053853;28;20828;-56
2022/04/25 07:47:28;;;;;;;17.08;9.88;;;16.10;97.80;;;;;;5052999;28;20028;-55
2022/04/25 07:49:53;;;;;;;17.23;9.38;;;16.10;97.50;;;;;;5057301;28;20087;-56
2022/04/25 07:52:19;;;;;;;13.88;8.85;;;15.90;98.00;;;;;;5057155;28;20425;-55
2022/04/25 07:54:45;;;;;;;15.60;9.60;;;15.70;98.80;;;;;;5057018;28;20060;-55
2022/04/25 07:57:10;;;;;;;13.93;9.23;;;15.70;98.50;;;;;;5058411;28;20024;-55
2022/04/25 07:59:36;;;;;;;17.58;9.25;;;15.40;98.50;;;;;;5055327;28;20036;-55
2022/04/25 08:02:03;;;;;;;14.13;9.63;;;15.30;99.30;;;;;;5055859;28;20061;-55
2022/04/25 08:04:31;;;;;;;15.02;9.50;;;15.40;99.40;;;;;;5055233;28;20120;-55
2022/04/25 08:06:57;;;;;;;17.13;9.52;;;15.20;99.10;;;;;;5055594;28;20028;-55
2022/04/25 08:09:23;;;;;;;13.52;9.98;;;15.00;99.60;;;;;;5054315;28;20501;-55
2022/04/25 08:11:48;;;;;;;20.58;9.95;;;15.20;99.50;;;;;;5052664;28;20413;-56
2022/04/25 08:19:42;;;;;;;16.60;9.60;;;15.70;97.80;;;;;;5045448;28;20048;-56
2022/04/25 08:22:09;;;;;;;14.38;9.30;;;15.50;97.80;;;;;;5052032;28;20421;-55
2022/04/25 08:24:36;;;;;;;16.35;8.98;;;15.50;98.20;;;;;;5055292;28;20016;-56
2022/04/25 08:27:06;;;;;;;16.48;9.10;;;15.50;98.40;;;;;;5056311;28;20036;-56
2022/04/25 08:29:35;;;;;;;13.52;8.98;;;15.80;97.60;;;;;;5048935;28;20024;-56
2022/04/25 08:32:01;;;;;;;18.27;9.88;;;16.10;96.80;;;;;;5047760;28;20115;-56
2022/04/25 08:34:26;;;;;;;16.45;9.00;;;16.70;96.10;;;;;;5051069;28;20127;-56
2022/04/25 08:36:52;;;;;;;13.52;8.38;;;16.90;95.10;;;;;;5044799;28;20060;-56
2022/04/25 08:39:18;;;;;;;15.38;8.60;;;17.50;94.50;;;;;;5055433;28;20044;-56
2022/04/25 08:41:53;;;;;;;15.63;8.40;;;17.80;93.30;;;;;;5056578;28;20029;-57
2022/04/25 08:44:19;;;;;;;20.67;9.00;;;19.20;92.80;;;;;;5055433;28;20158;-57
2022/04/25 08:46:49;;;;;;;13.27;7.40;;;20.70;88.10;;;;;;5056642;28;20087;-57
2022/04/25 08:49:19;;;;;;;9.60;7.53;;;21.00;85.40;;;;;;5058278;28;20095;-57
2022/04/25 08:51:46;;;;;;;12.23;7.38;;;20.80;84.70;;;;;;5058723;28;20029;-56
2022/04/25 08:54:13;;;;;;;9.50;6.60;;;19.60;85.50;;;;;;5053454;28;20041;-56
2022/04/25 08:56:41;;;;;;;11.18;6.68;;;18.30;87.80;;;;;;5052240;28;20116;-56
2022/04/25 08:59:08;;;;;;;14.40;9.10;;;17.20;90.30;;;;;;5055634;28;20020;-56
2022/04/25 09:01:35;;;;;;;15.25;7.50;;;16.70;92.50;;;;;;5055695;28;20032;-56
2022/04/25 09:04:01;;;;;;;13.50;7.25;;;16.40;92.40;;;;;;5057144;28;20059;-56
2022/04/25 09:06:27;;;;;;;14.20;9.10;;;15.80;92.80;;;;;;5056270;28;20052;-56
2022/04/25 09:08:53;;;;;;;12.45;8.10;;;15.60;94.10;;;;;;5054082;28;20066;-56
2022/04/25 09:14:04;;;;;;;15.40;9.98;;;14.90;96.00;;;;;;5052663;28;20109;-55
2022/04/25 09:16:30;;;;;;;15.10;9.48;;;14.60;97.20;;;;;;5052856;28;20028;-55
2022/04/25 09:18:57;;;;;;;15.05;9.32;;;14.70;97.60;;;;;;5056456;28;20027;-55
2022/04/25 09:21:24;;;;;;;14.23;9.27;;;14.90;97.40;;;;;;5057158;28;20477;-55
2022/04/25 09:23:51;;;;;;;14.43;9.43;;;14.80;97.00;;;;;;5059069;28;20039;-55
2022/04/25 09:26:28;;;;;;;23.10;11.13;;;14.70;97.10;;;;;;5059504;28;20028;-55
2022/04/25 09:28:57;;;;;;;14.63;10.70;;;14.70;98.30;;;;;;5060668;28;20146;-55
2022/04/25 09:31:27;;;;;;;16.35;10.82;;;14.90;99.20;;;;;;5054745;28;20025;-55
2022/04/25 09:33:53;;;;;;;16.42;12.20;;;15.30;98.10;;;;;;5059667;28;20509;-56
2022/04/25 09:36:21;;;;;;;16.38;11.07;;;15.60;97.30;;;;;;5062722;28;20021;-55
2022/04/25 09:38:47;;;;;;;14.90;10.20;;;15.60;96.50;;;;;;5064240;28;20660;-55
2022/04/25 09:41:15;;;;;;;15.15;10.27;;;15.70;96.40;;;;;;5060356;28;20032;-55
2022/04/25 09:43:43;;;;;;;15.75;10.60;;;15.50;97.10;;;;;;5059833;28;20032;-55
2022/04/25 09:46:13;;;;;;;18.42;11.10;;;15.60;97.10;;;;;;5062330;28;20029;-55
2022/04/25 09:48:43;;;;;;;21.45;11.18;;;15.50;97.30;;;;;;5061200;28;20397;-56
2022/04/25 09:51:11;;;;;;;19.58;11.73;;;15.30;97.50;;;;;;5025367;28;20032;-56
2022/04/25 09:53:44;;;;;;;14.52;11.60;;;15.20;97.90;;;;;;5058898;28;20073;-56
2022/04/25 09:56:18;;;;;;;15.93;11.15;;;15.00;98.80;;;;;;5065055;28;20028;-55
2022/04/25 09:58:56;;;;;;;19.88;11.20;;;15.00;99.20;;;;;;5056447;28;20090;-55
2022/04/25 10:01:22;;;;;;;20.38;10.57;;;15.20;99.00;;;;;;5060366;28;20037;-55
2022/04/25 10:03:48;;;;;;;19.23;11.20;;;14.70;99.40;;;;;;5061540;28;20033;-55
2022/04/25 10:06:14;;;;;;;20.08;11.10;;;14.50;99.70;;;;;;5055781;28;20021;-55
2022/04/25 10:08:41;;;;;;;16.52;10.10;;;14.50;99.90;;;;;;5059706;28;20028;-55
2022/04/25 10:11:07;;;;;;;18.02;10.65;;;14.40;99.90;;;;;;5066674;28;20112;-55
2022/04/25 10:13:34;;;;;;;16.23;9.73;;;14.50;99.80;;;;;;5061475;28;20042;-55
2022/04/25 10:16:00;;;;;;;16.17;10.00;;;14.60;99.00;;;;;;5060439;28;20021;-55
2022/04/25 10:18:28;;;;;;;17.77;11.15;;;14.70;98.60;;;;;;5065510;28;20489;-55
2022/04/25 10:20:54;;;;;;;20.40;11.23;;;15.00;98.40;;;;;;5064000;28;20028;-55
2022/04/25 10:23:20;;;;;;;22.08;11.05;;;15.00;99.10;;;;;;5059898;28;20504;-55
2022/04/25 10:25:48;;;;;;;27.88;11.25;;;15.00;99.30;;;;;;5037575;28;20029;-56
2022/04/25 10:28:19;;;;;;;15.07;11.18;;;15.10;99.20;;;;;;5058848;28;20401;-55
2022/04/25 10:30:48;;;;;;;15.20;10.68;;;15.40;98.60;;;;;;5056808;28;20082;-56
2022/04/25 10:33:21;;;;;;;18.20;10.93;;;15.90;97.80;;;;;;5060700;28;20091;-57
2022/04/25 10:35:52;;;;;;;13.93;8.43;;;16.40;97.50;;;;;;5063911;28;20116;-57
2022/04/25 10:38:47;;;;;;;14.95;8.63;;;18.50;92.80;;;;;;5062070;28;20035;-57
2022/04/25 10:44:18;;;;;;;12.52;8.98;;;18.70;88.90;;;;;;5058419;28;20100;-56
2022/04/25 10:47:03;;;;;;;18.95;11.60;;;17.70;90.70;;;;;;5061769;28;20478;-56
2022/04/25 10:49:47;;;;;;;23.30;12.82;;;16.40;94.10;;;;;;5057826;28;20981;-56
2022/04/25 10:52:54;;;;;;;17.80;13.38;;;15.40;98.60;;;;;;5058144;28;20481;-55
2022/04/25 10:55:42;;;;;;;16.13;11.98;;;14.80;99.90;;;;;;5058028;28;20343;-56
2022/04/25 10:58:12;;;;;;;15.55;13.88;;;14.30;99.90;;;;;;5062471;28;20017;-56
2022/04/25 11:00:40;;;;;;;29.20;16.95;;;14.10;99.90;;;;;;5063481;28;20033;-56
2022/04/25 11:03:13;;;;;;;24.77;18.38;;;13.80;99.90;;;;;;5059450;28;20036;-56
2022/04/25 11:05:45;;;;;;;26.80;18.63;;;13.50;99.90;;;;;;5057367;28;20063;-56
2022/04/25 11:08:19;;;;;;;28.33;19.70;;;13.50;99.90;;;;;;5045744;28;20044;-56
2022/04/25 11:10:48;;;;;;;26.90;20.23;;;13.00;99.90;;;;;;5058036;28;20501;-56
2022/04/25 11:13:18;;;;;;;24.40;20.27;;;12.80;99.90;;;;;;5069149;28;20032;-57
2022/04/25 11:15:48;;;;;;;23.80;19.38;;;12.80;99.90;;;;;;5055560;28;20693;-57
2022/04/25 11:18:37;;;;;;;25.30;20.33;;;12.90;99.90;;;;;;5059784;28;20033;-56
2022/04/25 11:21:13;;;;;;;25.80;20.13;;;12.90;99.90;;;;;;5056072;28;20490;-56
2022/04/25 11:23:44;;;;;;;21.55;17.92;;;13.00;99.90;;;;;;5057932;28;20481;-57
2022/04/25 11:26:22;;;;;;;24.88;17.38;;;13.10;99.90;;;;;;5063840;28;20059;-57
2022/04/25 11:28:54;;;;;;;22.95;17.23;;;13.00;99.90;;;;;;5060773;28;20491;-56
2022/04/25 11:31:22;;;;;;;19.33;15.98;;;13.00;99.90;;;;;;5060650;28;20047;-56
2022/04/25 11:33:50;;;;;;;14.77;11.18;;;12.90;99.90;;;;;;5067374;28;20052;-56
2022/04/25 11:36:17;;;;;;;13.43;10.00;;;12.50;99.90;;;;;;5066973;28;20123;-55
2022/04/25 11:41:30;;;;;;;7.13;6.25;;;12.50;99.90;;;;;;5060346;28;20034;-57
2022/04/25 11:43:57;;;;;;;8.45;7.20;;;12.80;99.90;;;;;;5068025;28;21143;-57
2022/04/25 11:46:26;;;;;;;10.73;8.68;;;13.10;99.90;;;;;;5058130;28;20128;-57
2022/04/25 11:48:54;;;;;;;19.75;10.70;;;13.40;99.90;;;;;;5055550;28;20067;-56
2022/04/25 11:51:23;;;;;;;6.07;5.47;;;13.80;99.90;;;;;;5061623;28;20035;-56
2022/04/25 11:53:53;;;;;;;6.90;6.20;;;14.10;99.90;;;;;;5059764;28;20023;-55
2022/04/25 11:56:19;;;;;;;6.88;6.18;;;14.40;99.90;;;;;;5063040;28;20077;-58
2022/04/25 11:58:44;;;;;;;7.20;6.28;;;14.10;99.90;;;;;;5059836;28;21739;-55
2022/04/25 12:01:10;;;;;;;9.07;6.53;;;14.20;99.90;;;;;;5056744;28;20028;-55
2022/04/25 12:03:36;;;;;;;7.05;5.75;;;14.30;99.90;;;;;;5059936;28;20286;-57
2022/04/25 12:06:09;;;;;;;8.30;6.60;;;14.50;99.90;;;;;;5056379;28;20035;-55
2022/04/25 12:16:48;;;;;;;8.73;4.88;;;17.10;98.40;;;;;;5054320;28;20133;-56
2022/04/25 12:19:13;;;;;;;5.30;4.80;;;17.90;96.50;;;;;;5053759;28;20055;-58
2022/04/25 12:21:45;;;;;;;6.25;5.60;;;18.80;93.20;;;;;;5053538;28;20067;-56
2022/04/25 12:24:17;;;;;;;6.35;5.72;;;18.50;93.50;;;;;;5053631;28;20557;-56
2022/04/25 12:26:43;;;;;;;7.60;6.80;;;18.30;93.40;;;;;;5057360;28;20052;-56
2022/04/25 12:29:11;;;;;;;8.45;6.10;;;17.60;93.50;;;;;;5059594;28;20738;-56
2022/04/25 12:31:45;;;;;;;7.40;6.70;;;17.00;94.40;;;;;;5054870;28;20060;-55
2022/04/25 12:34:15;;;;;;;13.43;7.57;;;16.80;96.70;;;;;;5061405;28;20083;-55
2022/04/25 12:36:56;;;;;;;12.20;8.23;;;16.90;97.20;;;;;;5060610;28;20416;-55
2022/04/25 12:39:22;;;;;;;10.65;8.90;;;16.80;98.10;;;;;;5058929;28;20033;-58
2022/04/25 12:42:07;;;;;;;11.55;10.02;;;16.10;98.40;;;;;;5063631;28;20549;-55
2022/04/25 12:44:33;;;;;;;13.20;11.35;;;15.50;99.90;;;;;;5061030;28;20052;-56
2022/04/25 12:47:08;;;;;;;17.17;10.43;;;14.90;99.90;;;;;;5063176;28;20024;-55
2022/04/25 12:49:34;;;;;;;14.20;9.85;;;14.70;99.90;;;;;;5063179;28;20115;-55
2022/04/25 12:52:01;;;;;;;12.95;10.07;;;14.40;99.90;;;;;;5056070;28;20056;-57
2022/04/25 12:54:46;;;;;;;15.27;9.52;;;14.40;99.90;;;;;;5076696;28;20111;-59
2022/04/25 12:57:24;;;;;;;12.38;10.95;;;14.10;99.90;;;;;;5059808;28;20029;-58
2022/04/25 12:59:52;;;;;;;11.65;10.45;;;14.10;99.90;;;;;;5058958;28;20043;-59
2022/04/25 13:02:39;;;;;;;12.80;11.50;;;13.80;99.90;;;;;;5059306;28;20032;-59
2022/04/25 13:05:07;;;;;;;19.27;13.02;;;13.60;99.90;;;;;;5051933;28;20036;-60
2022/04/25 13:07:37;;;;;;;17.05;11.77;;;13.70;99.90;;;;;;5056406;28;20047;-59
2022/04/25 13:10:08;;;;;;;13.77;12.10;;;13.80;99.90;;;;;;5059509;28;20029;-58
2022/04/25 13:12:43;;;;;;;19.33;13.00;;;13.90;99.90;;;;;;5059283;28;20393;-58
2022/04/25 13:15:12;;;;;;;15.52;11.80;;;13.70;99.90;;;;;;5048486;28;20024;-57
2022/04/25 13:17:38;;;;;;;15.27;13.65;;;13.70;99.90;;;;;;5048163;28;20031;-57
2022/04/25 13:20:05;;;;;;;15.30;12.82;;;13.70;99.90;;;;;;5049577;28;20014;-57
2022/04/25 13:22:31;;;;;;;17.13;11.77;;;13.80;99.90;;;;;;5061100;28;20059;-56